sensor_id;sensor_type;location;lat;lon;timestamp;P1;P2;P0
79418;PMS5003;68866;49.902;8.680;2023-04-06T00:02:54;10;10;
79418;PMS5003;68866;49.902;8.680;2023-04-06T00:13:16;12;12;
79418;PMS5003;68866;49.902;8.680;2023-04-06T00:23:38;16;16;
79418;PMS5003;68866;49.902;8.680;2023-04-06T00:33:59;12;12;
79418;PMS5003;68866;49.902;8.680;2023-04-06T00:44:21;12;12;
79418;PMS5003;68866;49.902;8.680;2023-04-06T00:54:44;8;8;
79418;PMS5003;68866;49.902;8.680;2023-04-06T00:59:56;18;18;
79418;PMS5003;68866;49.902;8.680;2023-04-06T01:10:23;28;18;
79418;PMS5003;68866;49.902;8.680;2023-04-06T01:20:45;6;6;
79418;PMS5003;68866;49.902;8.680;2023-04-06T01:31:08;18;18;
79418;PMS5003;68866;49.902;8.680;2023-04-06T01:41:30;12;12;
79418;PMS5003;68866;49.902;8.680;2023-04-06T01:51:52;16;10;
79418;PMS5003;68866;49.902;8.680;2023-04-06T02:02:15;12;12;
79418;PMS5003;68866;49.902;8.680;2023-04-06T02:12:37;10;10;
79418;PMS5003;68866;49.902;8.680;2023-04-06T02:22:59;10;10;
79418;PMS5003;68866;49.902;8.680;2023-04-06T02:33:21;14;14;
79418;PMS5003;68866;49.902;8.680;2023-04-06T02:43:43;22;12;
79418;PMS5003;68866;49.902;8.680;2023-04-06T02:54:05;12;12;
79418;PMS5003;68866;49.902;8.680;2023-04-06T03:04:27;6;6;
79418;PMS5003;68866;49.902;8.680;2023-04-06T03:14:49;10;10;
79418;PMS5003;68866;49.902;8.680;2023-04-06T03:20:02;8;8;
79418;PMS5003;68866;49.902;8.680;2023-04-06T03:30:24;8;8;
79418;PMS5003;68866;49.902;8.680;2023-04-06T03:40:46;16;16;
79418;PMS5003;68866;49.902;8.680;2023-04-06T03:51:08;26;12;
79418;PMS5003;68866;49.902;8.680;2023-04-06T04:01:30;10;10;
79418;PMS5003;68866;49.902;8.680;2023-04-06T04:11:52;8;8;
79418;PMS5003;68866;49.902;8.680;2023-04-06T04:22:14;18;10;
79418;PMS5003;68866;49.902;8.680;2023-04-06T04:32:36;12;12;
79418;PMS5003;68866;49.902;8.680;2023-04-06T04:42:58;14;14;
79418;PMS5003;68866;49.902;8.680;2023-04-06T04:53:20;14;14;
79418;PMS5003;68866;49.902;8.680;2023-04-06T05:03:43;18;18;
79418;PMS5003;68866;49.902;8.680;2023-04-06T05:14:05;6;6;
79418;PMS5003;68866;49.902;8.680;2023-04-06T05:24:29;12;12;
79418;PMS5003;68866;49.902;8.680;2023-04-06T05:34:50;12;12;
79418;PMS5003;68866;49.902;8.680;2023-04-06T05:40:03;12;12;
79418;PMS5003;68866;49.902;8.680;2023-04-06T05:50:26;16;16;
79418;PMS5003;68866;49.902;8.680;2023-04-06T06:00:48;14;14;
79418;PMS5003;68866;49.902;8.680;2023-04-06T06:11:10;12;12;
79418;PMS5003;68866;49.902;8.680;2023-04-06T06:21:32;12;12;
79418;PMS5003;68866;49.902;8.680;2023-04-06T06:31:56;16;16;
79418;PMS5003;68866;49.902;8.680;2023-04-06T06:42:17;14;14;
79418;PMS5003;68866;49.902;8.680;2023-04-06T06:52:39;28;28;
79418;PMS5003;68866;49.902;8.680;2023-04-06T07:03:01;32;32;
79418;PMS5003;68866;49.902;8.680;2023-04-06T07:13:23;30;30;
79418;PMS5003;68866;49.902;8.680;2023-04-06T07:23:45;38;38;
79418;PMS5003;68866;49.902;8.680;2023-04-06T07:34:07;32;32;
79418;PMS5003;68866;49.902;8.680;2023-04-06T07:44:29;52;40;
79418;PMS5003;68866;49.902;8.680;2023-04-06T07:54:51;56;56;
79418;PMS5003;68866;49.902;8.680;2023-04-06T08:00:02;52;52;
79418;PMS5003;68866;49.902;8.680;2023-04-06T08:10:25;40;34;
79418;PMS5003;68866;49.902;8.680;2023-04-06T08:20:47;38;38;
79418;PMS5003;68866;49.902;8.680;2023-04-06T08:31:09;52;40;
79418;PMS5003;68866;49.902;8.680;2023-04-06T08:41:31;38;38;
79418;PMS5003;68866;49.902;8.680;2023-04-06T08:51:56;68;54;
79418;PMS5003;68866;49.902;8.680;2023-04-06T09:02:19;44;44;
79418;PMS5003;68866;49.902;8.680;2023-04-06T09:12:41;30;30;
79418;PMS5003;68866;49.902;8.680;2023-04-06T09:23:03;48;36;
79418;PMS5003;68866;49.902;8.680;2023-04-06T09:33:25;40;40;
79418;PMS5003;68866;49.902;8.680;2023-04-06T09:43:46;30;30;
79418;PMS5003;68866;49.902;8.680;2023-04-06T09:54:08;66;34;
79418;PMS5003;68866;49.902;8.680;2023-04-06T10:04:37;40;26;
79418;PMS5003;68866;49.902;8.680;2023-04-06T10:09:54;30;22;
79418;PMS5003;68866;49.902;8.680;2023-04-06T10:20:17;24;24;
79418;PMS5003;68866;49.902;8.680;2023-04-06T10:41:24;34;34;
79418;PMS5003;68866;49.902;8.680;2023-04-06T11:02:31;46;38;
79418;PMS5003;68866;49.902;8.680;2023-04-06T11:12:55;38;30;
79418;PMS5003;68866;49.902;8.680;2023-04-06T11:23:25;36;36;
79418;PMS5003;68866;49.902;8.680;2023-04-06T11:33:47;52;52;
79418;PMS5003;68866;49.902;8.680;2023-04-06T11:54:53;38;38;
79418;PMS5003;68866;49.902;8.680;2023-04-06T12:00:07;34;34;
79418;PMS5003;68866;49.902;8.680;2023-04-06T12:10:31;40;40;
79418;PMS5003;68866;49.902;8.680;2023-04-06T12:20:53;36;36;
79418;PMS5003;68866;49.902;8.680;2023-04-06T12:31:17;44;44;
79418;PMS5003;68866;49.902;8.680;2023-04-06T12:41:40;38;38;
79418;PMS5003;68866;49.902;8.680;2023-04-06T12:52:05;32;32;
79418;PMS5003;68866;49.902;8.680;2023-04-06T13:02:27;40;28;
79418;PMS5003;68866;49.902;8.680;2023-04-06T13:12:49;36;30;
79418;PMS5003;68866;49.902;8.680;2023-04-06T13:23:11;48;48;
79418;PMS5003;68866;49.902;8.680;2023-04-06T13:33:33;32;32;
79418;PMS5003;68866;49.902;8.680;2023-04-06T13:54:32;44;44;
79418;PMS5003;68866;49.902;8.680;2023-04-06T14:04:54;22;22;
79418;PMS5003;68866;49.902;8.680;2023-04-06T14:10:06;44;32;
79418;PMS5003;68866;49.902;8.680;2023-04-06T14:20:30;32;32;
79418;PMS5003;68866;49.902;8.680;2023-04-06T14:30:54;46;38;
79418;PMS5003;68866;49.902;8.680;2023-04-06T14:41:16;44;44;
79418;PMS5003;68866;49.902;8.680;2023-04-06T14:51:39;26;26;
79418;PMS5003;68866;49.902;8.680;2023-04-06T15:02:01;22;22;
79418;PMS5003;68866;49.902;8.680;2023-04-06T15:12:23;30;22;
79418;PMS5003;68866;49.902;8.680;2023-04-06T15:22:47;34;34;
79418;PMS5003;68866;49.902;8.680;2023-04-06T15:33:09;26;26;
79418;PMS5003;68866;49.902;8.680;2023-04-06T15:43:31;44;44;
79418;PMS5003;68866;49.902;8.680;2023-04-06T15:53:53;30;30;
79418;PMS5003;68866;49.902;8.680;2023-04-06T16:04:15;50;44;
79418;PMS5003;68866;49.902;8.680;2023-04-06T16:14:36;26;26;
79418;PMS5003;68866;49.902;8.680;2023-04-06T16:24:59;20;14;
79418;PMS5003;68866;49.902;8.680;2023-04-06T16:30:10;22;22;
79418;PMS5003;68866;49.902;8.680;2023-04-06T16:40:33;14;14;
79418;PMS5003;68866;49.902;8.680;2023-04-06T16:50:54;38;26;
79418;PMS5003;68866;49.902;8.680;2023-04-06T17:01:17;20;20;
79418;PMS5003;68866;49.902;8.680;2023-04-06T17:11:39;14;14;
79418;PMS5003;68866;49.902;8.680;2023-04-06T17:22:01;18;18;
79418;PMS5003;68866;49.902;8.680;2023-04-06T17:32:23;16;16;
79418;PMS5003;68866;49.902;8.680;2023-04-06T17:42:45;10;10;
79418;PMS5003;68866;49.902;8.680;2023-04-06T17:53:07;16;16;
79418;PMS5003;68866;49.902;8.680;2023-04-06T18:03:29;20;20;
79418;PMS5003;68866;49.902;8.680;2023-04-06T18:13:51;20;20;
79418;PMS5003;68866;49.902;8.680;2023-04-06T18:24:12;30;30;
79418;PMS5003;68866;49.902;8.680;2023-04-06T18:34:35;26;20;
79418;PMS5003;68866;49.902;8.680;2023-04-06T18:44:57;22;22;
79418;PMS5003;68866;49.902;8.680;2023-04-06T18:50:08;28;20;
79418;PMS5003;68866;49.902;8.680;2023-04-06T19:00:31;18;18;
79418;PMS5003;68866;49.902;8.680;2023-04-06T19:10:53;40;24;
79418;PMS5003;68866;49.902;8.680;2023-04-06T19:21:15;14;14;
79418;PMS5003;68866;49.902;8.680;2023-04-06T19:31:37;38;18;
79418;PMS5003;68866;49.902;8.680;2023-04-06T19:42:00;22;22;
79418;PMS5003;68866;49.902;8.680;2023-04-06T19:52:22;22;22;
79418;PMS5003;68866;49.902;8.680;2023-04-06T20:02:44;26;26;
79418;PMS5003;68866;49.902;8.680;2023-04-06T20:13:06;28;28;
79418;PMS5003;68866;49.902;8.680;2023-04-06T20:23:28;20;20;
79418;PMS5003;68866;49.902;8.680;2023-04-06T20:33:50;36;36;
79418;PMS5003;68866;49.902;8.680;2023-04-06T20:44:12;28;28;
79418;PMS5003;68866;49.902;8.680;2023-04-06T20:54:34;56;34;
79418;PMS5003;68866;49.902;8.680;2023-04-06T21:04:56;28;20;
79418;PMS5003;68866;49.902;8.680;2023-04-06T21:10:08;40;32;
79418;PMS5003;68866;49.902;8.680;2023-04-06T21:20:30;38;26;
79418;PMS5003;68866;49.902;8.680;2023-04-06T21:30:52;50;38;
79418;PMS5003;68866;49.902;8.680;2023-04-06T21:41:14;48;36;
79418;PMS5003;68866;49.902;8.680;2023-04-06T21:51:36;50;44;
79418;PMS5003;68866;49.902;8.680;2023-04-06T22:01:58;48;32;
79418;PMS5003;68866;49.902;8.680;2023-04-06T22:12:20;34;26;
79418;PMS5003;68866;49.902;8.680;2023-04-06T22:22:42;48;48;
79418;PMS5003;68866;49.902;8.680;2023-04-06T22:33:04;44;32;
79418;PMS5003;68866;49.902;8.680;2023-04-06T22:43:26;34;28;
79418;PMS5003;68866;49.902;8.680;2023-04-06T22:53:48;52;42;
79418;PMS5003;68866;49.902;8.680;2023-04-06T23:04:10;30;30;
79418;PMS5003;68866;49.902;8.680;2023-04-06T23:14:32;50;50;
79418;PMS5003;68866;49.902;8.680;2023-04-06T23:24:54;72;50;
79418;PMS5003;68866;49.902;8.680;2023-04-06T23:30:06;46;38;
79418;PMS5003;68866;49.902;8.680;2023-04-06T23:40:29;46;36;
79418;PMS5003;68866;49.902;8.680;2023-04-06T23:50:50;48;40;
